createdAt,value
2022-12-18T00:00:07.348Z,-3.60
2022-12-18T00:03:49.873Z,-3.60
2022-12-18T00:07:31.899Z,-3.60
2022-12-18T00:11:17.712Z,-3.60
2022-12-18T00:14:59.618Z,-3.60
2022-12-18T00:18:42.565Z,-3.60
2022-12-18T00:22:24.563Z,-3.70
2022-12-18T00:26:11.005Z,-3.70
2022-12-18T00:29:52.964Z,-3.70
2022-12-18T00:33:36.054Z,-3.70
2022-12-18T00:37:20.195Z,-3.80
2022-12-18T00:41:03.096Z,-3.80
2022-12-18T00:44:44.999Z,-3.70
2022-12-18T00:48:27.081Z,-3.70
2022-12-18T00:52:08.976Z,-3.60
2022-12-18T00:55:50.941Z,-3.40
2022-12-18T00:59:32.878Z,-3.20
2022-12-18T01:03:15.502Z,-2.90
2022-12-18T01:06:57.532Z,-2.60
2022-12-18T01:10:42.638Z,-2.40
2022-12-18T01:14:24.604Z,-2.30
2022-12-18T01:18:07.259Z,-2.10
2022-12-18T01:21:49.281Z,-2.00
2022-12-18T01:25:31.235Z,-2.00
2022-12-18T01:29:13.192Z,-1.80
2022-12-18T01:32:55.278Z,-1.60
2022-12-18T01:36:40.068Z,-1.40
2022-12-18T01:40:22.161Z,-1.40
2022-12-18T01:44:42.620Z,-1.30
2022-12-18T01:48:24.566Z,-1.30
2022-12-18T01:52:06.686Z,-1.30
2022-12-18T01:55:53.776Z,-1.30
2022-12-18T01:59:37.767Z,-1.40
2022-12-18T02:03:19.765Z,-1.30
2022-12-18T02:07:22.983Z,-1.40
2022-12-18T02:11:30.930Z,-1.30
2022-12-18T02:15:21.635Z,-1.30
2022-12-18T02:19:21.438Z,-1.30
2022-12-18T02:23:24.928Z,-1.20
2022-12-18T02:27:08.782Z,-1.20
2022-12-18T02:30:53.445Z,-1.10
2022-12-18T02:34:39.926Z,-1.10
2022-12-18T02:38:22.320Z,-1.10
2022-12-18T02:42:08.985Z,-1.10
2022-12-18T02:45:57.159Z,-1.10
2022-12-18T02:49:57.637Z,-1.10
2022-12-18T02:53:51.890Z,-1.00
2022-12-18T02:57:59.610Z,-1.00
2022-12-18T03:01:41.604Z,-1.00
2022-12-18T03:05:34.250Z,-1.00
2022-12-18T03:09:22.398Z,-1.00
2022-12-18T03:13:31.891Z,-1.00
2022-12-18T03:17:18.761Z,-0.90
2022-12-18T03:21:07.238Z,-0.80
2022-12-18T03:24:50.135Z,-0.70
2022-12-18T03:28:36.618Z,-0.70
2022-12-18T03:32:32.145Z,-0.70
2022-12-18T03:36:14.362Z,-0.70
2022-12-18T03:39:56.403Z,-0.70
2022-12-18T03:43:47.744Z,-0.60
2022-12-18T03:47:35.790Z,-0.50
2022-12-18T03:51:29.992Z,-0.50
2022-12-18T03:55:13.249Z,-0.40
2022-12-18T03:58:56.377Z,-0.40
2022-12-18T04:02:44.309Z,-0.40
2022-12-18T04:06:27.248Z,-0.40
2022-12-18T04:10:10.450Z,-0.30
2022-12-18T04:13:57.388Z,-0.30
2022-12-18T04:17:43.373Z,-0.30
2022-12-18T04:21:25.346Z,-0.20
2022-12-18T04:25:07.847Z,-0.20
2022-12-18T04:28:49.794Z,-0.10
2022-12-18T04:32:31.689Z,0.00
2022-12-18T04:36:13.637Z,0.10
2022-12-18T04:39:55.550Z,0.30
2022-12-18T04:43:37.984Z,0.40
2022-12-18T04:47:20.181Z,0.50
2022-12-18T04:51:02.497Z,0.60
2022-12-18T04:54:44.416Z,0.60
2022-12-18T04:58:26.386Z,0.80
2022-12-18T05:02:08.418Z,0.80
2022-12-18T05:05:53.323Z,1.00
2022-12-18T05:09:35.831Z,1.00
2022-12-18T05:13:17.785Z,1.10
2022-12-18T05:17:01.194Z,1.20
2022-12-18T05:20:43.401Z,1.30
2022-12-18T05:24:25.370Z,1.40
2022-12-18T05:28:07.340Z,1.50
2022-12-18T05:31:49.351Z,1.50
2022-12-18T05:35:31.371Z,1.60
2022-12-18T05:39:13.437Z,1.70
2022-12-18T05:42:55.397Z,1.80
2022-12-18T05:46:37.575Z,1.90
2022-12-18T05:50:19.584Z,2.00
2022-12-18T05:54:01.507Z,2.10
2022-12-18T05:57:43.462Z,2.20
2022-12-18T06:01:27.545Z,2.20
2022-12-18T06:05:10.172Z,2.30
2022-12-18T06:08:52.660Z,2.40
2022-12-18T06:12:34.800Z,2.50
2022-12-18T06:16:16.935Z,2.50
2022-12-18T06:19:59.341Z,2.50
2022-12-18T06:23:41.597Z,2.60
2022-12-18T06:27:23.784Z,2.60
2022-12-18T06:31:06.511Z,2.70
2022-12-18T06:34:48.505Z,2.70
2022-12-18T06:38:30.415Z,2.70
2022-12-18T06:42:12.486Z,2.80
2022-12-18T06:46:00.625Z,2.80
2022-12-18T06:49:42.645Z,2.80
2022-12-18T06:53:25.234Z,2.90
2022-12-18T06:57:07.173Z,2.90
2022-12-18T07:00:49.118Z,3.00
2022-12-18T07:04:31.668Z,3.00
2022-12-18T07:08:13.565Z,3.10
2022-12-18T07:11:55.540Z,3.10
2022-12-18T07:15:37.942Z,3.10
2022-12-18T07:19:19.945Z,3.10
2022-12-18T07:23:04.188Z,3.10
2022-12-18T07:26:49.569Z,3.10
2022-12-18T07:30:31.540Z,3.10
2022-12-18T07:34:14.739Z,3.20
2022-12-18T07:37:56.727Z,3.20
2022-12-18T07:41:43.759Z,3.20
2022-12-18T07:45:28.483Z,3.10
2022-12-18T07:49:10.492Z,3.10
2022-12-18T07:52:52.410Z,3.10
2022-12-18T07:56:34.355Z,3.20
2022-12-18T08:00:17.322Z,3.20
2022-12-18T08:03:59.904Z,3.20
2022-12-18T08:07:41.853Z,3.10
2022-12-18T08:11:25.564Z,3.10
2022-12-18T08:15:08.693Z,3.10
2022-12-18T08:18:52.537Z,3.10
2022-12-18T08:22:36.549Z,3.10
2022-12-18T08:26:19.513Z,3.10
2022-12-18T08:30:03.930Z,3.10
2022-12-18T08:33:46.449Z,3.10
2022-12-18T08:37:29.048Z,3.00
2022-12-18T08:41:13.873Z,3.00
2022-12-18T08:44:55.815Z,2.90
2022-12-18T08:48:37.846Z,2.90
2022-12-18T08:52:19.809Z,2.90
2022-12-18T08:56:01.788Z,2.90
2022-12-18T08:59:43.725Z,2.80
2022-12-18T09:03:25.737Z,2.90
2022-12-18T09:07:07.735Z,2.90
2022-12-18T09:10:51.035Z,2.90
2022-12-18T09:14:32.989Z,2.90
2022-12-18T09:18:16.562Z,2.90
2022-12-18T09:21:58.520Z,2.90
2022-12-18T09:25:40.897Z,2.90
2022-12-18T09:29:22.839Z,2.90
2022-12-18T09:33:04.827Z,2.90
2022-12-18T09:36:49.404Z,2.90
2022-12-18T09:40:55.902Z,2.90
2022-12-18T09:44:45.544Z,2.90
2022-12-18T09:48:36.788Z,3.00
2022-12-18T09:52:42.970Z,2.90
2022-12-18T09:56:28.975Z,3.00
2022-12-18T10:00:20.734Z,3.00
2022-12-18T10:04:02.872Z,3.00
2022-12-18T10:07:50.571Z,3.00
2022-12-18T10:12:04.573Z,3.10
2022-12-18T10:16:04.978Z,3.10
2022-12-18T10:20:15.433Z,3.10
2022-12-18T10:24:09.374Z,3.20
2022-12-18T10:27:58.837Z,3.20
2022-12-18T10:31:40.880Z,3.30
2022-12-18T10:35:27.995Z,3.30
2022-12-18T10:39:24.343Z,3.30
2022-12-18T10:43:06.288Z,3.40
2022-12-18T10:46:59.012Z,3.40
2022-12-18T10:51:09.832Z,3.40
2022-12-18T10:54:51.912Z,3.50
2022-12-18T10:58:38.891Z,3.50
2022-12-18T11:02:37.538Z,3.50
2022-12-18T11:06:25.671Z,3.50
2022-12-18T11:10:21.040Z,3.60
2022-12-18T11:14:13.630Z,3.60
2022-12-18T11:17:55.630Z,3.70
2022-12-18T11:21:43.471Z,3.70
2022-12-18T11:25:34.429Z,3.80
2022-12-18T11:29:19.788Z,3.80
2022-12-18T11:33:18.478Z,3.90
2022-12-18T11:37:04.424Z,3.90
2022-12-18T11:40:52.814Z,4.00
2022-12-18T11:44:52.028Z,4.00
2022-12-18T11:48:40.430Z,4.00
2022-12-18T11:52:37.071Z,4.00
2022-12-18T11:56:34.817Z,4.10
2022-12-18T12:00:22.866Z,4.10
2022-12-18T12:04:26.334Z,4.20
2022-12-18T12:08:27.067Z,4.20
2022-12-18T12:12:48.632Z,4.30
2022-12-18T12:16:49.947Z,4.30
2022-12-18T12:20:43.895Z,4.40
2022-12-18T12:24:52.967Z,4.50
2022-12-18T12:29:20.997Z,4.60
2022-12-18T12:33:15.254Z,4.70
2022-12-18T12:37:31.164Z,4.80
2022-12-18T12:41:53.951Z,4.80
2022-12-18T12:45:53.982Z,4.90
2022-12-18T12:49:40.465Z,5.00
2022-12-18T12:53:31.639Z,5.10
2022-12-18T12:57:41.036Z,5.10
2022-12-18T13:01:26.085Z,5.20
2022-12-18T13:05:35.429Z,5.30
2022-12-18T13:09:17.391Z,5.40
2022-12-18T13:13:17.289Z,5.50
2022-12-18T13:17:32.121Z,5.60
2022-12-18T13:21:25.738Z,5.70
2022-12-18T13:25:32.824Z,5.80
2022-12-18T13:29:45.159Z,5.90
2022-12-18T13:33:30.539Z,6.00
2022-12-18T13:37:34.806Z,6.10
2022-12-18T13:41:19.594Z,6.30
2022-12-18T13:45:01.983Z,6.40
2022-12-18T13:48:57.981Z,6.60
2022-12-18T13:52:41.108Z,6.80
2022-12-18T13:56:29.335Z,6.90
2022-12-18T14:00:23.423Z,7.00
2022-12-18T14:04:36.579Z,7.20
2022-12-18T14:08:20.841Z,7.30
2022-12-18T14:12:22.258Z,7.40
2022-12-18T14:16:07.478Z,7.50
2022-12-18T14:19:51.770Z,7.60
2022-12-18T14:23:33.786Z,7.60
2022-12-18T14:27:23.664Z,7.70
2022-12-18T14:31:05.831Z,7.80
2022-12-18T14:34:56.907Z,7.80
2022-12-18T14:38:40.863Z,7.90
2022-12-18T14:42:22.777Z,7.90
2022-12-18T14:46:07.469Z,8.00
2022-12-18T14:49:49.546Z,8.00
2022-12-18T14:53:38.144Z,8.10
2022-12-18T14:57:41.392Z,8.20
2022-12-18T15:01:28.504Z,8.20
2022-12-18T15:05:25.536Z,8.20
2022-12-18T15:09:24.781Z,8.30
2022-12-18T15:13:08.191Z,8.30
2022-12-18T15:16:56.404Z,8.30
2022-12-18T15:20:50.579Z,8.30
2022-12-18T15:24:33.860Z,8.30
2022-12-18T15:28:31.934Z,8.40
2022-12-18T15:32:23.050Z,8.40
2022-12-18T15:36:09.925Z,8.40
2022-12-18T15:39:51.789Z,8.40
2022-12-18T15:43:37.386Z,8.50
2022-12-18T15:47:19.503Z,8.50
2022-12-18T15:51:02.312Z,8.40
2022-12-18T15:55:02.644Z,8.50
2022-12-18T15:58:44.633Z,8.50
2022-12-18T16:02:27.445Z,8.50
2022-12-18T16:06:10.913Z,8.60
2022-12-18T16:09:53.257Z,8.60
2022-12-18T16:13:35.278Z,8.60
2022-12-18T16:17:17.492Z,8.70
2022-12-18T16:21:00.470Z,8.70
2022-12-18T16:24:43.804Z,8.70
2022-12-18T16:28:25.701Z,8.70
2022-12-18T16:32:07.679Z,8.80
2022-12-18T16:35:53.469Z,8.80
2022-12-18T16:39:36.243Z,8.80
2022-12-18T16:43:18.135Z,8.80
2022-12-18T16:47:03.215Z,8.90
2022-12-18T16:50:45.327Z,8.90
2022-12-18T16:54:30.536Z,8.90
2022-12-18T16:58:12.494Z,8.90
2022-12-18T17:01:55.819Z,9.00
2022-12-18T17:05:37.950Z,9.00
2022-12-18T17:09:26.637Z,9.00
2022-12-18T17:13:08.576Z,9.00
2022-12-18T17:17:07.367Z,9.10
2022-12-18T17:20:52.780Z,9.10
2022-12-18T17:24:35.595Z,9.10
2022-12-18T17:28:17.659Z,9.10
2022-12-18T17:32:00.479Z,9.20
2022-12-18T17:35:42.553Z,9.20
2022-12-18T17:39:24.541Z,9.20
2022-12-18T17:43:10.534Z,9.30
2022-12-18T17:46:52.570Z,9.30
2022-12-18T17:50:35.389Z,9.30
2022-12-18T17:54:17.468Z,9.30
2022-12-18T17:57:59.496Z,9.30
2022-12-18T18:01:44.823Z,9.40
2022-12-18T18:05:27.476Z,9.40
2022-12-18T18:09:15.289Z,9.40
2022-12-18T18:13:17.360Z,9.50
2022-12-18T18:17:01.152Z,9.50
2022-12-18T18:20:46.911Z,9.50
2022-12-18T18:24:28.908Z,9.60
2022-12-18T18:28:10.886Z,9.60
2022-12-18T18:31:52.973Z,9.60
2022-12-18T18:36:01.573Z,9.60
2022-12-18T18:39:36.952Z,9.70
2022-12-18T18:43:18.905Z,9.70
2022-12-18T18:47:01.321Z,9.80
2022-12-18T18:50:45.840Z,9.80
2022-12-18T18:54:28.017Z,9.80
2022-12-18T18:58:09.919Z,9.90
2022-12-18T19:01:53.017Z,10.00
2022-12-18T19:05:35.394Z,10.00
2022-12-18T19:09:17.398Z,10.10
2022-12-18T19:13:18.162Z,10.20
2022-12-18T19:17:00.168Z,10.20
2022-12-18T19:20:43.916Z,10.30
2022-12-18T19:24:26.013Z,10.30
2022-12-18T19:28:13.539Z,10.40
2022-12-18T19:32:04.894Z,10.40
2022-12-18T19:35:47.000Z,10.50
2022-12-18T19:39:29.009Z,10.50
2022-12-18T19:43:12.447Z,10.50
2022-12-18T19:46:54.402Z,10.60
2022-12-18T19:50:42.031Z,10.60
2022-12-18T19:54:24.065Z,10.70
2022-12-18T19:58:08.770Z,10.70
2022-12-18T20:01:50.796Z,10.70
2022-12-18T20:05:33.003Z,10.70
2022-12-18T20:09:15.155Z,10.70
2022-12-18T20:12:57.082Z,10.80
2022-12-18T20:16:40.644Z,10.80
2022-12-18T20:20:22.821Z,10.80
2022-12-18T20:24:05.397Z,10.80
2022-12-18T20:27:47.386Z,10.90
2022-12-18T20:31:29.647Z,10.90
2022-12-18T20:35:11.627Z,11.00
2022-12-18T20:38:57.096Z,11.00
2022-12-18T20:42:41.711Z,11.10
2022-12-18T20:46:24.631Z,11.10
2022-12-18T20:50:07.429Z,11.10
2022-12-18T20:53:49.461Z,11.20
2022-12-18T20:57:31.534Z,11.20
2022-12-18T21:01:15.859Z,11.20
2022-12-18T21:04:57.864Z,11.30
2022-12-18T21:08:39.853Z,11.30
2022-12-18T21:12:49.632Z,11.30
2022-12-18T21:16:43.918Z,11.40
2022-12-18T21:20:25.982Z,11.50
2022-12-18T21:24:08.733Z,11.50
2022-12-18T21:27:50.682Z,11.50
2022-12-18T21:31:35.483Z,11.60
2022-12-18T21:35:17.809Z,11.70
2022-12-18T21:39:02.306Z,11.80
2022-12-18T21:43:02.983Z,11.80
2022-12-18T21:46:51.533Z,11.90
2022-12-18T21:50:36.862Z,11.90
2022-12-18T21:54:19.927Z,12.00
2022-12-18T21:58:01.822Z,12.00
2022-12-18T22:01:44.994Z,12.00
2022-12-18T22:05:26.986Z,12.10
2022-12-18T22:09:11.691Z,12.00
2022-12-18T22:12:55.085Z,12.10
2022-12-18T22:16:37.519Z,12.10
2022-12-18T22:20:20.474Z,12.10
2022-12-18T22:24:07.635Z,12.10
2022-12-18T22:28:07.991Z,12.10
2022-12-18T22:31:50.364Z,12.10
2022-12-18T22:35:33.793Z,12.10
2022-12-18T22:39:22.239Z,12.10
2022-12-18T22:43:04.642Z,12.10
2022-12-18T22:46:56.211Z,12.10
2022-12-18T22:50:49.844Z,12.10
2022-12-18T22:54:33.123Z,12.10
2022-12-18T22:58:15.098Z,12.10
2022-12-18T23:01:59.104Z,12.00
2022-12-18T23:05:41.398Z,12.00
2022-12-18T23:09:23.529Z,12.00
2022-12-18T23:13:05.474Z,12.00
2022-12-18T23:16:47.422Z,12.00
2022-12-18T23:20:31.820Z,12.00
2022-12-18T23:24:14.115Z,12.00
2022-12-18T23:27:56.016Z,12.10
2022-12-18T23:31:39.578Z,12.10
2022-12-18T23:35:21.727Z,12.10
2022-12-18T23:39:03.758Z,12.10
2022-12-18T23:42:45.695Z,12.10
2022-12-18T23:46:30.779Z,12.10
2022-12-18T23:50:12.973Z,12.20
2022-12-18T23:53:57.622Z,12.20
2022-12-18T23:57:39.586Z,12.20
